Le Boreal — FLSY — position and weather

sailwx.info

Track history (hours):
 
Tides and Currents Weather Stations Pressure Air Temp Water Temp Dewpoint Dewpoint Depression Visibility Wind Speed Wind Dir Waves Ship Positions

Le Boreal

Last reported at 2016-Jul-15 01:32 UTC. Time now 2016-Jul-25 04:23 UTC.
Position N 69°19' E 017°60'.
Warning: this ship's position is 10 days out of date.

Length 140 m; draft 5.1 m.

Type: Passenger vessel. MMSI: 578000500.

Date/timePositionNaut miles runAvg speedWind from/ knotsBaromVisibWave heightAir tempDewpointWater temp
2016-Jul-15 01:32N 69°19' E 017°60'8 8.5
2016-Jul-15 00:33N 69°11' E 018°00'1313.3
2016-Jul-14 23:33N 69°05' E 017°26'152 3.2
2016-Jul-13 00:21N 67°03' E 013°25'1012.1
2016-Jul-12 23:32N 66°54' E 013°27'2611.6
2016-Jul-12 21:18N 66°30' E 012°59'3613.1
2016-Jul-12 18:33N 65°57' E 012°26'53 6.6
2016-Jul-12 10:31N 65°06' E 011°49'1213.1
2016-Jul-12 09:34N 64°57' E 011°29'1212.4
2016-Jul-12 08:33N 64°49' E 011°08'  
Track history (hours):
 
Tides and Currents Weather Stations Pressure Air Temp Water Temp Dewpoint Dewpoint Depression Visibility Wind Speed Wind Dir Waves Ship Positions

Le Boreal

Last reported at 2016-Jul-15 01:32 UTC. Time now 2016-Jul-25 04:23 UTC.
Position N 69°19' E 017°60'.
Warning: this ship's position is 10 days out of date.

Length 140 m; draft 5.1 m.

Type: Passenger vessel. MMSI: 578000500.

Date/timePositionNaut miles runAvg speedWind from/ knotsBaromVisibWave heightAir tempDewpointWater temp
2016-Jul-15 01:32N 69°19' E 017°60'8 8.5
2016-Jul-15 00:33N 69°11' E 018°00'1313.3
2016-Jul-14 23:33N 69°05' E 017°26'152 3.2
2016-Jul-13 00:21N 67°03' E 013°25'1012.1
2016-Jul-12 23:32N 66°54' E 013°27'2611.6
2016-Jul-12 21:18N 66°30' E 012°59'3613.1
2016-Jul-12 18:33N 65°57' E 012°26'53 6.6
2016-Jul-12 10:31N 65°06' E 011°49'1213.1
2016-Jul-12 09:34N 64°57' E 011°29'1212.4
2016-Jul-12 08:33N 64°49' E 011°08'  

Dump ship's entire track history